SLC weather

Salt Lake City International Airport
Salt Lake City, Utah, United States

Public forecast

Using degrees Fahrenheit for public forecast. Weather courtesy of forecast.io.

METAR (pilot weather report)

Retrieved 2017/12/10 21:54 UTC (1 hour ago):

KSLC 102154Z 32005KT 7SM FEW200 04/M04 A3059 RMK AO2 SLP377 T00391044 $

TAF (pilot weather forecast)

Retrieved 2017/12/10 18:22 UTC (5 hours ago):

TAF KSLC 101720Z 1018/1124 34005KT 6SM HZ SKC FM110400 14004KT 5SM BR SKC FM111500 14004KT 6SM HZ SKC FM111800 35005KT 6SM HZ SKC